N515CC KOQU-LPCS
Flight info
| Callsign | N515CC |
|---|---|
| Flight time | 5h 32m |
| Altitude | 33000 |
| Route | LARIE DCT WHALE/M082F350 N33E JAROM DCT 44N050W/M082F370 45N040W/M082F390 45N030W 43N020W DCT DETOX/N0464F390 DCT CAS |
| Aircraft | CL60/M-SADE3FGHIJ3J4J7P2RWXY/HB1D1 |
Departure
| Time | 2026-04-12 15:11 |
|---|---|
| Airport | Quonset State Airport (KOQU) |
Arrival
| Time | 2026-04-12 20:43 |
|---|---|
| Airport | Cascais Airport (LPCS) |
| Time | Latitude | Longitude | Altitude | Speed | Heading |
|---|---|---|---|---|---|
| 2026-04-12 14:51 | 41.59438 | -71.41260 | 33 ft | 0 kts | 321° |
| 2026-04-12 15:07 | 41.59457 | -71.41267 | 32 ft | 5 kts | 13° |
| 2026-04-12 15:07 | 41.59484 | -71.41209 | 32 ft | 8 kts | 69° |
| 2026-04-12 15:07 | 41.59483 | -71.41128 | 31 ft | 10 kts | 140° |
| 2026-04-12 15:07 | 41.59414 | -71.41065 | 31 ft | 13 kts | 145° |
| 2026-04-12 15:08 | 41.59335 | -71.40991 | 32 ft | 14 kts | 145° |
| 2026-04-12 15:08 | 41.59244 | -71.40910 | 31 ft | 16 kts | 146° |
| 2026-04-12 15:08 | 41.59140 | -71.40811 | 28 ft | 19 kts | 146° |
| 2026-04-12 15:08 | 41.59041 | -71.40720 | 24 ft | 15 kts | 145° |
| 2026-04-12 15:09 | 41.58971 | -71.40655 | 21 ft | 6 kts | 145° |
| 2026-04-12 15:09 | 41.58961 | -71.40644 | 20 ft | 0 kts | 139° |
| 2026-04-12 15:09 | 41.58949 | -71.40620 | 19 ft | 8 kts | 109° |
| 2026-04-12 15:09 | 41.58979 | -71.40525 | 16 ft | 8 kts | 31° |
| 2026-04-12 15:10 | 41.59032 | -71.40544 | 18 ft | 7 kts | 326° |
| 2026-04-12 15:10 | 41.59081 | -71.40589 | 21 ft | 9 kts | 325° |
| 2026-04-12 15:10 | 41.59092 | -71.40600 | 22 ft | 3 kts | 325° |
| 2026-04-12 15:10 | 41.59345 | -71.40835 | 29 ft | 87 kts | 325° |
| 2026-04-12 15:11 | 41.60049 | -71.41492 | 28 ft | 155 kts | 326° |
| 2026-04-12 15:11 | 41.61008 | -71.42385 | 470 ft | 175 kts | 326° |
| 2026-04-12 15:11 | 41.61879 | -71.43549 | 1197 ft | 184 kts | 296° |
| 2026-04-12 15:11 | 41.61998 | -71.45252 | 1824 ft | 200 kts | 252° |
| 2026-04-12 15:12 | 41.61180 | -71.46711 | 2407 ft | 200 kts | 208° |
| 2026-04-12 15:12 | 41.59841 | -71.47044 | 2888 ft | 202 kts | 168° |
| 2026-04-12 15:12 | 41.58501 | -71.46496 | 2998 ft | 200 kts | 159° |
| 2026-04-12 15:12 | 41.57237 | -71.45763 | 2988 ft | 199 kts | 152° |
| 2026-04-12 15:13 | 41.56204 | -71.44554 | 2981 ft | 196 kts | 120° |
| 2026-04-12 15:13 | 41.55769 | -71.42849 | 3270 ft | 201 kts | 95° |
| 2026-04-12 15:13 | 41.55832 | -71.40978 | 4108 ft | 211 kts | 77° |
| 2026-04-12 15:13 | 41.56175 | -71.39006 | 4949 ft | 224 kts | 73° |
| 2026-04-12 15:14 | 41.56562 | -71.36975 | 5779 ft | 237 kts | 73° |
| 2026-04-12 15:14 | 41.56986 | -71.34793 | 6623 ft | 250 kts | 72° |
| 2026-04-12 15:14 | 41.57428 | -71.32514 | 7466 ft | 262 kts | 72° |
| 2026-04-12 15:14 | 41.57896 | -71.30094 | 8281 ft | 275 kts | 72° |
| 2026-04-12 15:15 | 41.58377 | -71.27612 | 9112 ft | 285 kts | 71° |
| 2026-04-12 15:15 | 41.58873 | -71.25028 | 10003 ft | 293 kts | 71° |
| 2026-04-12 15:15 | 41.59374 | -71.22356 | 10775 ft | 305 kts | 71° |
| 2026-04-12 15:15 | 41.59913 | -71.19525 | 11266 ft | 327 kts | 71° |
| 2026-04-12 15:16 | 41.60494 | -71.16482 | 11819 ft | 345 kts | 71° |
| 2026-04-12 15:16 | 41.61092 | -71.13342 | 12425 ft | 358 kts | 71° |
| 2026-04-12 15:16 | 41.61714 | -71.10072 | 13130 ft | 367 kts | 71° |
| 2026-04-12 15:16 | 41.62343 | -71.06735 | 13884 ft | 373 kts | 71° |
| 2026-04-12 15:17 | 41.62980 | -71.03392 | 14574 ft | 380 kts | 71° |
| 2026-04-12 15:17 | 41.63638 | -70.99926 | 15193 ft | 389 kts | 71° |
| 2026-04-12 15:17 | 41.64302 | -70.96406 | 15883 ft | 394 kts | 70° |
| 2026-04-12 15:17 | 41.64973 | -70.92842 | 16581 ft | 399 kts | 70° |
| 2026-04-12 15:18 | 41.65652 | -70.89226 | 17174 ft | 406 kts | 70° |
| 2026-04-12 15:18 | 41.66338 | -70.85585 | 17787 ft | 411 kts | 70° |
| 2026-04-12 15:18 | 41.67036 | -70.81854 | 18458 ft | 414 kts | 70° |
| 2026-04-12 15:18 | 41.67737 | -70.78085 | 19069 ft | 418 kts | 70° |
| 2026-04-12 15:19 | 41.68428 | -70.74359 | 19676 ft | 421 kts | 70° |
| 2026-04-12 15:19 | 41.69139 | -70.70526 | 20328 ft | 423 kts | 70° |
| 2026-04-12 15:19 | 41.69844 | -70.66709 | 20910 ft | 426 kts | 70° |
| 2026-04-12 15:19 | 41.70549 | -70.62878 | 21476 ft | 429 kts | 70° |
| 2026-04-12 15:20 | 41.71263 | -70.59004 | 22031 ft | 432 kts | 70° |
| 2026-04-12 15:20 | 41.71983 | -70.55079 | 22542 ft | 436 kts | 70° |
| 2026-04-12 15:20 | 41.72712 | -70.51131 | 23034 ft | 440 kts | 70° |
| 2026-04-12 15:20 | 41.73447 | -70.47128 | 23571 ft | 442 kts | 70° |
| 2026-04-12 15:21 | 41.74170 | -70.43152 | 24098 ft | 444 kts | 69° |
| 2026-04-12 15:21 | 41.74906 | -70.39098 | 24565 ft | 447 kts | 69° |
| 2026-04-12 15:21 | 41.75641 | -70.35040 | 25011 ft | 451 kts | 69° |
| 2026-04-12 15:21 | 41.76387 | -70.30941 | 25418 ft | 455 kts | 69° |
| 2026-04-12 15:22 | 41.77129 | -70.26865 | 25887 ft | 457 kts | 70° |
| 2026-04-12 15:22 | 41.77871 | -70.22708 | 26354 ft | 459 kts | 69° |
| 2026-04-12 15:22 | 41.78618 | -70.18533 | 26817 ft | 460 kts | 69° |
| 2026-04-12 15:22 | 41.79367 | -70.14362 | 27207 ft | 463 kts | 69° |
| 2026-04-12 15:23 | 41.80118 | -70.10176 | 27590 ft | 465 kts | 69° |
| 2026-04-12 15:23 | 41.80865 | -70.05988 | 27985 ft | 467 kts | 69° |
| 2026-04-12 15:23 | 41.81631 | -70.01700 | 28264 ft | 470 kts | 68° |
| 2026-04-12 15:23 | 41.82363 | -69.97468 | 28541 ft | 476 kts | 71° |
| 2026-04-12 15:24 | 41.82964 | -69.93034 | 28820 ft | 480 kts | 72° |
| 2026-04-12 15:24 | 41.83576 | -69.88617 | 29027 ft | 484 kts | 71° |
| 2026-04-12 15:24 | 41.84188 | -69.84205 | 29356 ft | 485 kts | 71° |
| 2026-04-12 15:24 | 41.84810 | -69.79731 | 29593 ft | 488 kts | 71° |
| 2026-04-12 15:25 | 41.85422 | -69.75310 | 29822 ft | 490 kts | 71° |
| 2026-04-12 15:25 | 41.86051 | -69.70757 | 30035 ft | 493 kts | 71° |
| 2026-04-12 15:25 | 41.86670 | -69.66241 | 30362 ft | 492 kts | 71° |
| 2026-04-12 15:25 | 41.87283 | -69.61765 | 30583 ft | 494 kts | 71° |
| 2026-04-12 15:26 | 41.87907 | -69.57193 | 30739 ft | 497 kts | 71° |
| 2026-04-12 15:26 | 41.88524 | -69.52651 | 30991 ft | 497 kts | 71° |
| 2026-04-12 15:26 | 41.89140 | -69.48096 | 31170 ft | 499 kts | 71° |
| 2026-04-12 15:26 | 41.89759 | -69.43507 | 31465 ft | 497 kts | 71° |
| 2026-04-12 15:27 | 41.90365 | -69.38989 | 31756 ft | 495 kts | 71° |
| 2026-04-12 15:27 | 41.90976 | -69.34427 | 32046 ft | 494 kts | 71° |
| 2026-04-12 15:27 | 41.91581 | -69.29883 | 32352 ft | 492 kts | 71° |
| 2026-04-12 15:27 | 41.92180 | -69.25378 | 32660 ft | 490 kts | 71° |
| 2026-04-12 15:28 | 41.92777 | -69.20871 | 32947 ft | 488 kts | 71° |
| 2026-04-12 15:28 | 41.93364 | -69.16432 | 33155 ft | 488 kts | 71° |
| 2026-04-12 15:28 | 41.93954 | -69.11963 | 33361 ft | 487 kts | 71° |
| 2026-04-12 15:28 | 41.94544 | -69.07483 | 33518 ft | 489 kts | 71° |
| 2026-04-12 15:29 | 41.95139 | -69.02956 | 33505 ft | 493 kts | 71° |
| 2026-04-12 15:29 | 41.96328 | -68.93860 | 33509 ft | 500 kts | 71° |
| 2026-04-12 15:30 | 41.97530 | -68.84595 | 33504 ft | 504 kts | 71° |
| 2026-04-12 15:30 | 41.98722 | -68.75319 | 33514 ft | 505 kts | 71° |
| 2026-04-12 15:31 | 41.99911 | -68.66002 | 33523 ft | 505 kts | 71° |
| 2026-04-12 15:31 | 42.01086 | -68.56735 | 33518 ft | 505 kts | 71° |
| 2026-04-12 15:32 | 42.02259 | -68.47429 | 33508 ft | 505 kts | 71° |
| 2026-04-12 15:32 | 42.03419 | -68.38163 | 33515 ft | 505 kts | 71° |
| 2026-04-12 15:33 | 42.04575 | -68.28863 | 33509 ft | 505 kts | 72° |
| 2026-04-12 15:33 | 42.05725 | -68.19549 | 33507 ft | 505 kts | 72° |
| 2026-04-12 15:34 | 42.06864 | -68.10257 | 33504 ft | 506 kts | 72° |
| 2026-04-12 15:34 | 42.07816 | -68.02450 | 33503 ft | 506 kts | 72° |
| 2026-04-12 15:35 | 42.09134 | -67.91552 | 33506 ft | 506 kts | 72° |
| 2026-04-12 15:35 | 42.10255 | -67.82215 | 33501 ft | 506 kts | 72° |
| 2026-04-12 15:36 | 42.11367 | -67.72889 | 33502 ft | 506 kts | 72° |
| 2026-04-12 15:36 | 42.12476 | -67.63518 | 33490 ft | 506 kts | 72° |
| 2026-04-12 15:37 | 42.13575 | -67.54163 | 33490 ft | 506 kts | 72° |
| 2026-04-12 15:37 | 42.14660 | -67.44856 | 33487 ft | 505 kts | 72° |
| 2026-04-12 15:38 | 42.15745 | -67.35493 | 33480 ft | 506 kts | 72° |
| 2026-04-12 15:38 | 42.16823 | -67.26122 | 33482 ft | 506 kts | 72° |
| 2026-04-12 15:39 | 42.17887 | -67.16794 | 33483 ft | 507 kts | 72° |
| 2026-04-12 15:39 | 42.18954 | -67.07382 | 33470 ft | 508 kts | 72° |
| 2026-04-12 15:40 | 42.20209 | -66.98108 | 33468 ft | 497 kts | 65° |
| 2026-04-12 15:40 | 42.21896 | -66.90727 | 33477 ft | 495 kts | 63° |
| 2026-04-12 15:41 | 42.24273 | -66.80351 | 33477 ft | 495 kts | 63° |
| 2026-04-12 15:41 | 42.26286 | -66.71518 | 33474 ft | 495 kts | 63° |
| 2026-04-12 15:42 | 42.28315 | -66.62581 | 33466 ft | 496 kts | 63° |
| 2026-04-12 15:42 | 42.30322 | -66.53697 | 33474 ft | 496 kts | 63° |
| 2026-04-12 15:43 | 42.33328 | -66.40325 | 33469 ft | 497 kts | 63° |
| 2026-04-12 15:43 | 42.35331 | -66.31364 | 33453 ft | 497 kts | 64° |
| 2026-04-12 15:44 | 42.37311 | -66.22467 | 33459 ft | 497 kts | 64° |
| 2026-04-12 15:44 | 42.39299 | -66.13500 | 33442 ft | 498 kts | 64° |
| 2026-04-12 15:45 | 42.41276 | -66.04542 | 33455 ft | 498 kts | 64° |
| 2026-04-12 15:45 | 42.43253 | -65.95548 | 33444 ft | 499 kts | 64° |
| 2026-04-12 15:46 | 42.46204 | -65.82047 | 33447 ft | 499 kts | 64° |
| 2026-04-12 15:47 | 42.48157 | -65.73066 | 33436 ft | 499 kts | 64° |
| 2026-04-12 15:47 | 42.50116 | -65.64025 | 33440 ft | 499 kts | 64° |
| 2026-04-12 15:48 | 42.51972 | -65.55415 | 33436 ft | 499 kts | 64° |
| 2026-04-12 15:48 | 42.53919 | -65.46352 | 33438 ft | 499 kts | 63° |
| 2026-04-12 15:49 | 42.55524 | -65.38845 | 33438 ft | 499 kts | 63° |
| 2026-04-12 15:49 | 42.57456 | -65.29778 | 33432 ft | 500 kts | 64° |
| 2026-04-12 15:50 | 42.59378 | -65.20722 | 33425 ft | 501 kts | 64° |
| 2026-04-12 15:50 | 42.61305 | -65.11597 | 33438 ft | 501 kts | 63° |
| 2026-04-12 15:51 | 42.63213 | -65.02525 | 33427 ft | 501 kts | 64° |
| 2026-04-12 15:51 | 42.65112 | -64.93453 | 33425 ft | 501 kts | 63° |
| 2026-04-12 15:52 | 42.66996 | -64.84417 | 33420 ft | 501 kts | 63° |
| 2026-04-12 15:52 | 42.68887 | -64.75308 | 33411 ft | 502 kts | 63° |
| 2026-04-12 15:53 | 42.70773 | -64.66185 | 33408 ft | 503 kts | 63° |
| 2026-04-12 15:53 | 42.72650 | -64.57055 | 33405 ft | 502 kts | 63° |
| 2026-04-12 15:54 | 42.74529 | -64.47882 | 33398 ft | 502 kts | 63° |
| 2026-04-12 15:54 | 42.76390 | -64.38752 | 33398 ft | 503 kts | 63° |
| 2026-04-12 15:55 | 42.78245 | -64.29610 | 33392 ft | 504 kts | 64° |
| 2026-04-12 15:55 | 42.80103 | -64.20418 | 33389 ft | 504 kts | 64° |
| 2026-04-12 15:56 | 42.81950 | -64.11232 | 33391 ft | 506 kts | 64° |
| 2026-04-12 15:56 | 42.83809 | -64.01951 | 33383 ft | 508 kts | 64° |
| 2026-04-12 15:57 | 42.85662 | -63.92652 | 33386 ft | 508 kts | 64° |
| 2026-04-12 15:57 | 42.87496 | -63.83399 | 33376 ft | 508 kts | 64° |
| 2026-04-12 15:58 | 42.89327 | -63.74121 | 33374 ft | 508 kts | 63° |
| 2026-04-12 15:58 | 42.91155 | -63.64816 | 33377 ft | 508 kts | 64° |
| 2026-04-12 15:59 | 42.92968 | -63.55540 | 33382 ft | 508 kts | 63° |
| 2026-04-12 15:59 | 42.94787 | -63.46199 | 33368 ft | 509 kts | 64° |
| 2026-04-12 16:00 | 42.96588 | -63.36899 | 33369 ft | 510 kts | 64° |
| 2026-04-12 16:00 | 42.98396 | -63.27520 | 33358 ft | 511 kts | 64° |
| 2026-04-12 16:01 | 43.00200 | -63.18116 | 33373 ft | 512 kts | 64° |
| 2026-04-12 16:01 | 43.01991 | -63.08733 | 33358 ft | 512 kts | 64° |
| 2026-04-12 16:02 | 43.03776 | -62.99333 | 33359 ft | 512 kts | 64° |
| 2026-04-12 16:02 | 43.05561 | -62.89889 | 33343 ft | 513 kts | 64° |
| 2026-04-12 16:03 | 43.07330 | -62.80483 | 33354 ft | 513 kts | 64° |
| 2026-04-12 16:03 | 43.09096 | -62.71053 | 33351 ft | 514 kts | 64° |
| 2026-04-12 16:04 | 43.10863 | -62.61562 | 33336 ft | 515 kts | 65° |
| 2026-04-12 16:04 | 43.12614 | -62.52113 | 33350 ft | 516 kts | 65° |
| 2026-04-12 16:05 | 43.14369 | -62.42600 | 33335 ft | 518 kts | 64° |
| 2026-04-12 16:05 | 43.16121 | -62.33044 | 33332 ft | 517 kts | 65° |
| 2026-04-12 16:06 | 43.17867 | -62.23469 | 33321 ft | 516 kts | 65° |
| 2026-04-12 16:06 | 43.19590 | -62.13975 | 33323 ft | 516 kts | 65° |
| 2026-04-12 16:07 | 43.21313 | -62.04445 | 33320 ft | 518 kts | 66° |
| 2026-04-12 16:07 | 43.23042 | -61.94823 | 33318 ft | 519 kts | 66° |
| 2026-04-12 16:08 | 43.24758 | -61.85231 | 33299 ft | 522 kts | 66° |
| 2026-04-12 16:08 | 43.26478 | -61.75556 | 33307 ft | 522 kts | 66° |
| 2026-04-12 16:09 | 43.28186 | -61.65897 | 33289 ft | 523 kts | 66° |
| 2026-04-12 16:09 | 43.29890 | -61.56206 | 33299 ft | 523 kts | 66° |
| 2026-04-12 16:10 | 43.31583 | -61.46534 | 33298 ft | 524 kts | 66° |
| 2026-04-12 16:10 | 43.33282 | -61.36769 | 33290 ft | 525 kts | 66° |
| 2026-04-12 16:11 | 43.34963 | -61.27065 | 33271 ft | 527 kts | 67° |
| 2026-04-12 16:11 | 43.36655 | -61.17236 | 33274 ft | 528 kts | 67° |
| 2026-04-12 16:12 | 43.38332 | -61.07437 | 33267 ft | 528 kts | 68° |
| 2026-04-12 16:12 | 43.39995 | -60.97663 | 33271 ft | 528 kts | 68° |
| 2026-04-12 16:13 | 43.41663 | -60.87807 | 33289 ft | 528 kts | 68° |
| 2026-04-12 16:13 | 43.43309 | -60.78034 | 33273 ft | 528 kts | 68° |
| 2026-04-12 16:14 | 43.44951 | -60.68221 | 33274 ft | 528 kts | 68° |
| 2026-04-12 16:14 | 43.46598 | -60.58325 | 33279 ft | 530 kts | 68° |
| 2026-04-12 16:15 | 43.48227 | -60.48485 | 33278 ft | 531 kts | 68° |
| 2026-04-12 16:15 | 43.49860 | -60.38563 | 33247 ft | 531 kts | 69° |
| 2026-04-12 16:16 | 43.51487 | -60.28612 | 33242 ft | 531 kts | 70° |
| 2026-04-12 16:16 | 43.53099 | -60.18703 | 33243 ft | 532 kts | 70° |
| 2026-04-12 16:17 | 43.54705 | -60.08774 | 33216 ft | 533 kts | 70° |
| 2026-04-12 16:17 | 43.56307 | -59.98804 | 33225 ft | 534 kts | 71° |
| 2026-04-12 16:18 | 43.57901 | -59.88831 | 33214 ft | 534 kts | 71° |
| 2026-04-12 16:18 | 43.59482 | -59.78873 | 33212 ft | 535 kts | 71° |
| 2026-04-12 16:19 | 43.61064 | -59.68855 | 33214 ft | 534 kts | 71° |
| 2026-04-12 16:19 | 43.62640 | -59.58809 | 33199 ft | 535 kts | 71° |
| 2026-04-12 16:20 | 43.64196 | -59.48833 | 33192 ft | 535 kts | 71° |
| 2026-04-12 16:20 | 43.65751 | -59.38804 | 33193 ft | 535 kts | 71° |
| 2026-04-12 16:21 | 43.67297 | -59.28772 | 33190 ft | 536 kts | 73° |
| 2026-04-12 16:21 | 43.68841 | -59.18688 | 33193 ft | 536 kts | 73° |
| 2026-04-12 16:22 | 43.70374 | -59.08616 | 33175 ft | 537 kts | 73° |
| 2026-04-12 16:22 | 43.71892 | -58.98581 | 33174 ft | 537 kts | 73° |
| 2026-04-12 16:23 | 43.73406 | -58.88506 | 33178 ft | 537 kts | 73° |
| 2026-04-12 16:23 | 43.74913 | -58.78411 | 33165 ft | 537 kts | 73° |
| 2026-04-12 16:24 | 43.76419 | -58.68264 | 33160 ft | 537 kts | 74° |
| 2026-04-12 16:24 | 43.77902 | -58.58206 | 33144 ft | 538 kts | 74° |
| 2026-04-12 16:25 | 43.79386 | -58.48069 | 33144 ft | 538 kts | 74° |
| 2026-04-12 16:25 | 43.80860 | -58.37943 | 33148 ft | 538 kts | 74° |
| 2026-04-12 16:26 | 43.82319 | -58.27844 | 33144 ft | 538 kts | 75° |
| 2026-04-12 16:26 | 43.83776 | -58.17681 | 33141 ft | 539 kts | 75° |
| 2026-04-12 16:27 | 43.85228 | -58.07487 | 33189 ft | 538 kts | 76° |
| 2026-04-12 16:27 | 43.86666 | -57.97329 | 33322 ft | 540 kts | 76° |
| 2026-04-12 16:27 | 43.87384 | -57.92227 | 33457 ft | 539 kts | 76° |
| 2026-04-12 16:28 | 43.88103 | -57.87111 | 33567 ft | 539 kts | 76° |
| 2026-04-12 16:28 | 43.88813 | -57.82032 | 33694 ft | 539 kts | 76° |
| 2026-04-12 16:28 | 43.89524 | -57.76938 | 33837 ft | 539 kts | 76° |
| 2026-04-12 16:28 | 43.90237 | -57.71812 | 33949 ft | 539 kts | 76° |
| 2026-04-12 16:29 | 43.90939 | -57.66753 | 34069 ft | 539 kts | 76° |
| 2026-04-12 16:29 | 43.91653 | -57.61596 | 34205 ft | 538 kts | 77° |
| 2026-04-12 16:29 | 43.92351 | -57.56526 | 34321 ft | 538 kts | 77° |
| 2026-04-12 16:29 | 43.93056 | -57.51395 | 34456 ft | 538 kts | 77° |
| 2026-04-12 16:30 | 43.93750 | -57.46321 | 34573 ft | 538 kts | 77° |
| 2026-04-12 16:30 | 43.94439 | -57.41269 | 34701 ft | 538 kts | 77° |
| 2026-04-12 16:30 | 43.95135 | -57.36145 | 34831 ft | 538 kts | 77° |
| 2026-04-12 16:30 | 43.95827 | -57.31031 | 34951 ft | 537 kts | 78° |
| 2026-04-12 16:31 | 43.96507 | -57.25989 | 35068 ft | 537 kts | 78° |
| 2026-04-12 16:31 | 43.97881 | -57.15754 | 35070 ft | 541 kts | 78° |
| 2026-04-12 16:32 | 43.99244 | -57.05519 | 35052 ft | 543 kts | 78° |
| 2026-04-12 16:32 | 44.00438 | -56.95156 | 35055 ft | 544 kts | 82° |
| 2026-04-12 16:33 | 44.01338 | -56.84731 | 35050 ft | 544 kts | 82° |
| 2026-04-12 16:33 | 44.02235 | -56.74284 | 35044 ft | 544 kts | 83° |
| 2026-04-12 16:34 | 44.03118 | -56.63897 | 35037 ft | 545 kts | 82° |
| 2026-04-12 16:34 | 44.03995 | -56.53489 | 35025 ft | 545 kts | 83° |
| 2026-04-12 16:35 | 44.04866 | -56.43043 | 35014 ft | 546 kts | 83° |
| 2026-04-12 16:35 | 44.05731 | -56.32563 | 35024 ft | 546 kts | 84° |
| 2026-04-12 16:36 | 44.06587 | -56.22079 | 35004 ft | 546 kts | 84° |
| 2026-04-12 16:36 | 44.07426 | -56.11620 | 34986 ft | 546 kts | 84° |
| 2026-04-12 16:37 | 44.08256 | -56.01201 | 34996 ft | 546 kts | 84° |
| 2026-04-12 16:37 | 44.09079 | -55.90738 | 34984 ft | 546 kts | 84° |
| 2026-04-12 16:38 | 44.09897 | -55.80207 | 35001 ft | 546 kts | 84° |
| 2026-04-12 16:38 | 44.10704 | -55.69745 | 35000 ft | 546 kts | 84° |
| 2026-04-12 16:39 | 44.11503 | -55.59262 | 34984 ft | 546 kts | 84° |
| 2026-04-12 16:39 | 44.12292 | -55.48779 | 34977 ft | 546 kts | 84° |
| 2026-04-12 16:40 | 44.13070 | -55.38311 | 34971 ft | 546 kts | 85° |
| 2026-04-12 16:40 | 44.13842 | -55.27804 | 34971 ft | 545 kts | 85° |
| 2026-04-12 16:41 | 44.14601 | -55.17311 | 34960 ft | 546 kts | 85° |
| 2026-04-12 16:41 | 44.15350 | -55.06842 | 34963 ft | 546 kts | 85° |
| 2026-04-12 16:42 | 44.16090 | -54.96363 | 34967 ft | 546 kts | 85° |
| 2026-04-12 16:42 | 44.16649 | -54.85837 | 34945 ft | 544 kts | 92° |
| 2026-04-12 16:43 | 44.16349 | -54.64843 | 34941 ft | 544 kts | 94° |
| 2026-04-12 16:44 | 44.16183 | -54.54270 | 34935 ft | 544 kts | 94° |
| 2026-04-12 16:44 | 44.16010 | -54.43787 | 34921 ft | 545 kts | 94° |
| 2026-04-12 16:45 | 44.15827 | -54.33225 | 34932 ft | 544 kts | 94° |
| 2026-04-12 16:45 | 44.15636 | -54.22715 | 34918 ft | 544 kts | 95° |
| 2026-04-12 16:46 | 44.15436 | -54.12189 | 34928 ft | 544 kts | 95° |
| 2026-04-12 16:46 | 44.15226 | -54.01654 | 34919 ft | 544 kts | 94° |
| 2026-04-12 16:47 | 44.15007 | -53.91125 | 34942 ft | 545 kts | 95° |
| 2026-04-12 16:47 | 44.14778 | -53.80581 | 34938 ft | 545 kts | 95° |
| 2026-04-12 16:48 | 44.14539 | -53.70003 | 34924 ft | 545 kts | 95° |
| 2026-04-12 16:48 | 44.14291 | -53.59463 | 34913 ft | 544 kts | 96° |
| 2026-04-12 16:49 | 44.14035 | -53.48984 | 34914 ft | 543 kts | 96° |
| 2026-04-12 16:49 | 44.13768 | -53.38478 | 34917 ft | 543 kts | 95° |
| 2026-04-12 16:50 | 44.13494 | -53.28032 | 34900 ft | 542 kts | 96° |
| 2026-04-12 16:50 | 44.13209 | -53.17549 | 34916 ft | 542 kts | 96° |
| 2026-04-12 16:51 | 44.12915 | -53.07088 | 34896 ft | 543 kts | 96° |
| 2026-04-12 16:51 | 44.12609 | -52.96546 | 34906 ft | 542 kts | 97° |
| 2026-04-12 16:52 | 44.12296 | -52.86111 | 34907 ft | 542 kts | 97° |
| 2026-04-12 16:52 | 44.11972 | -52.75615 | 34894 ft | 542 kts | 97° |
| 2026-04-12 16:53 | 44.11640 | -52.65165 | 34901 ft | 541 kts | 97° |
| 2026-04-12 16:53 | 44.11298 | -52.54721 | 34907 ft | 540 kts | 97° |
| 2026-04-12 16:54 | 44.10948 | -52.44295 | 34893 ft | 540 kts | 97° |
| 2026-04-12 16:54 | 44.10586 | -52.33811 | 34876 ft | 541 kts | 98° |
| 2026-04-12 16:55 | 44.10219 | -52.23461 | 34889 ft | 539 kts | 98° |
| 2026-04-12 16:55 | 44.09841 | -52.13078 | 34880 ft | 539 kts | 98° |
| 2026-04-12 16:56 | 44.09453 | -52.02649 | 34882 ft | 538 kts | 98° |
| 2026-04-12 16:56 | 44.09060 | -51.92350 | 34878 ft | 538 kts | 99° |
| 2026-04-12 16:57 | 44.08654 | -51.81967 | 34883 ft | 537 kts | 98° |
| 2026-04-12 16:57 | 44.08239 | -51.71626 | 34867 ft | 538 kts | 98° |
| 2026-04-12 16:58 | 44.07815 | -51.61245 | 34875 ft | 538 kts | 99° |
| 2026-04-12 16:58 | 44.07381 | -51.50878 | 34882 ft | 538 kts | 99° |
| 2026-04-12 16:59 | 44.06937 | -51.40499 | 34882 ft | 539 kts | 99° |
| 2026-04-12 16:59 | 44.06486 | -51.30178 | 34888 ft | 539 kts | 100° |
| 2026-04-12 17:00 | 44.06023 | -51.19772 | 34886 ft | 538 kts | 100° |
| 2026-04-12 17:00 | 44.05548 | -51.09348 | 34887 ft | 539 kts | 100° |
| 2026-04-12 17:01 | 44.05068 | -50.99011 | 34873 ft | 540 kts | 100° |
| 2026-04-12 17:01 | 44.04575 | -50.88589 | 34870 ft | 540 kts | 101° |
| 2026-04-12 17:02 | 44.04073 | -50.78173 | 34875 ft | 539 kts | 101° |
| 2026-04-12 17:02 | 44.03564 | -50.67826 | 34864 ft | 540 kts | 101° |
| 2026-04-12 17:03 | 44.03043 | -50.57429 | 34874 ft | 541 kts | 101° |
| 2026-04-12 17:03 | 44.02513 | -50.47047 | 34869 ft | 541 kts | 101° |
| 2026-04-12 17:04 | 44.01975 | -50.36657 | 34878 ft | 542 kts | 101° |
| 2026-04-12 17:04 | 44.01424 | -50.26221 | 34865 ft | 542 kts | 102° |
| 2026-04-12 17:05 | 44.00863 | -50.15790 | 34875 ft | 542 kts | 102° |
| 2026-04-12 17:05 | 44.00320 | -50.05436 | 34859 ft | 545 kts | 99° |
| 2026-04-12 17:06 | 44.00778 | -49.94801 | 34865 ft | 558 kts | 85° |
| 2026-04-12 17:06 | 44.02284 | -49.84255 | 34853 ft | 559 kts | 83° |
| 2026-04-12 17:07 | 44.03809 | -49.73672 | 34868 ft | 560 kts | 84° |
| 2026-04-12 17:07 | 44.05320 | -49.63112 | 34849 ft | 560 kts | 84° |
| 2026-04-12 17:08 | 44.06828 | -49.52496 | 34863 ft | 559 kts | 84° |
| 2026-04-12 17:08 | 44.08322 | -49.41903 | 34859 ft | 559 kts | 83° |
| 2026-04-12 17:09 | 44.09798 | -49.31359 | 34864 ft | 559 kts | 85° |
| 2026-04-12 17:09 | 44.11271 | -49.20770 | 34863 ft | 558 kts | 84° |
| 2026-04-12 17:10 | 44.12733 | -49.10180 | 34845 ft | 558 kts | 85° |
| 2026-04-12 17:10 | 44.14183 | -48.99600 | 34879 ft | 558 kts | 85° |
| 2026-04-12 17:10 | 44.14904 | -48.94303 | 34762 ft | 557 kts | 85° |
| 2026-04-12 17:11 | 44.15626 | -48.88990 | 34869 ft | 557 kts | 85° |
| 2026-04-12 17:11 | 44.17053 | -48.78415 | 34863 ft | 561 kts | 85° |
| 2026-04-12 17:12 | 44.18483 | -48.67724 | 34859 ft | 561 kts | 85° |
| 2026-04-12 17:12 | 44.19897 | -48.57045 | 34852 ft | 562 kts | 85° |
| 2026-04-12 17:13 | 44.21303 | -48.46371 | 34856 ft | 562 kts | 85° |
| 2026-04-12 17:13 | 44.22698 | -48.35722 | 34845 ft | 561 kts | 85° |
| 2026-04-12 17:14 | 44.24087 | -48.25038 | 34856 ft | 561 kts | 85° |
| 2026-04-12 17:14 | 44.25464 | -48.14366 | 34855 ft | 560 kts | 86° |
| 2026-04-12 17:15 | 44.26835 | -48.03663 | 34845 ft | 560 kts | 86° |
| 2026-04-12 17:15 | 44.28190 | -47.92996 | 34847 ft | 560 kts | 86° |
| 2026-04-12 17:16 | 44.29536 | -47.82315 | 34847 ft | 560 kts | 86° |
| 2026-04-12 17:16 | 44.30868 | -47.71661 | 34827 ft | 560 kts | 86° |
| 2026-04-12 17:17 | 44.32197 | -47.60957 | 34841 ft | 560 kts | 86° |
| 2026-04-12 17:17 | 44.33514 | -47.50303 | 34842 ft | 561 kts | 85° |
| 2026-04-12 17:18 | 44.34830 | -47.39567 | 34835 ft | 561 kts | 86° |
| 2026-04-12 17:18 | 44.36132 | -47.28845 | 34828 ft | 560 kts | 87° |
| 2026-04-12 17:19 | 44.37416 | -47.18183 | 34824 ft | 558 kts | 87° |
| 2026-04-12 17:19 | 44.38688 | -47.07534 | 34829 ft | 558 kts | 86° |
| 2026-04-12 17:20 | 44.39951 | -46.96857 | 34827 ft | 558 kts | 87° |
| 2026-04-12 17:20 | 44.41208 | -46.86142 | 34821 ft | 559 kts | 87° |
| 2026-04-12 17:21 | 44.42452 | -46.75440 | 34819 ft | 559 kts | 87° |
| 2026-04-12 17:21 | 44.43690 | -46.64701 | 34824 ft | 560 kts | 86° |
| 2026-04-12 17:22 | 44.44917 | -46.53961 | 34818 ft | 561 kts | 87° |
| 2026-04-12 17:22 | 44.46133 | -46.43230 | 34818 ft | 561 kts | 86° |
| 2026-04-12 17:23 | 44.47341 | -46.32469 | 34817 ft | 561 kts | 88° |
| 2026-04-12 17:23 | 44.48542 | -46.21686 | 34813 ft | 561 kts | 88° |
| 2026-04-12 17:24 | 44.49734 | -46.10875 | 34801 ft | 561 kts | 88° |
| 2026-04-12 17:24 | 44.50911 | -46.00108 | 34806 ft | 562 kts | 88° |
| 2026-04-12 17:25 | 44.52078 | -45.89317 | 34803 ft | 562 kts | 88° |
| 2026-04-12 17:25 | 44.53241 | -45.78493 | 34805 ft | 562 kts | 89° |
| 2026-04-12 17:26 | 44.54394 | -45.67654 | 34806 ft | 562 kts | 88° |
| 2026-04-12 17:26 | 44.55530 | -45.56869 | 34804 ft | 563 kts | 88° |
| 2026-04-12 17:27 | 44.56662 | -45.46027 | 34802 ft | 563 kts | 89° |
| 2026-04-12 17:27 | 44.57785 | -45.35175 | 34805 ft | 562 kts | 88° |
| 2026-04-12 17:28 | 44.58892 | -45.24360 | 34796 ft | 562 kts | 89° |
| 2026-04-12 17:28 | 44.59998 | -45.13459 | 34819 ft | 563 kts | 89° |
| 2026-04-12 17:29 | 44.61084 | -45.02634 | 34808 ft | 563 kts | 89° |
| 2026-04-12 17:29 | 44.62165 | -44.91773 | 34813 ft | 564 kts | 89° |
| 2026-04-12 17:30 | 44.63238 | -44.80869 | 34812 ft | 565 kts | 89° |
| 2026-04-12 17:30 | 44.64305 | -44.69925 | 34806 ft | 566 kts | 89° |
| 2026-04-12 17:31 | 44.65360 | -44.58996 | 34795 ft | 566 kts | 90° |
| 2026-04-12 17:31 | 44.66407 | -44.48029 | 34792 ft | 567 kts | 89° |
| 2026-04-12 17:32 | 44.67442 | -44.37082 | 34798 ft | 568 kts | 89° |
| 2026-04-12 17:32 | 44.68472 | -44.26067 | 34784 ft | 569 kts | 90° |
| 2026-04-12 17:33 | 44.69488 | -44.15076 | 34776 ft | 570 kts | 91° |
| 2026-04-12 17:33 | 44.70500 | -44.04036 | 34796 ft | 570 kts | 91° |
| 2026-04-12 17:34 | 44.71497 | -43.93021 | 34777 ft | 571 kts | 91° |
| 2026-04-12 17:34 | 44.72489 | -43.81943 | 34778 ft | 571 kts | 90° |
| 2026-04-12 17:35 | 44.73465 | -43.70928 | 34780 ft | 571 kts | 90° |
| 2026-04-12 17:35 | 44.74437 | -43.59826 | 34784 ft | 571 kts | 90° |
| 2026-04-12 17:36 | 44.75392 | -43.48797 | 34787 ft | 572 kts | 90° |
| 2026-04-12 17:36 | 44.76342 | -43.37698 | 34785 ft | 572 kts | 90° |
| 2026-04-12 17:37 | 44.77278 | -43.26627 | 34770 ft | 572 kts | 91° |
| 2026-04-12 17:37 | 44.78208 | -43.15511 | 34774 ft | 572 kts | 91° |
| 2026-04-12 17:38 | 44.79127 | -43.04382 | 34774 ft | 571 kts | 91° |
| 2026-04-12 17:38 | 44.80027 | -42.93361 | 34778 ft | 571 kts | 91° |
| 2026-04-12 17:39 | 44.80925 | -42.82212 | 34774 ft | 573 kts | 90° |
| 2026-04-12 17:39 | 44.81809 | -42.71105 | 34772 ft | 574 kts | 91° |
| 2026-04-12 17:40 | 44.82686 | -42.59946 | 34770 ft | 575 kts | 91° |
| 2026-04-12 17:40 | 44.83553 | -42.48766 | 34766 ft | 578 kts | 90° |
| 2026-04-12 17:41 | 44.84415 | -42.37506 | 34777 ft | 580 kts | 90° |
| 2026-04-12 17:41 | 44.85268 | -42.26240 | 34774 ft | 577 kts | 91° |
| 2026-04-12 17:42 | 44.86103 | -42.15051 | 34771 ft | 576 kts | 91° |
| 2026-04-12 17:42 | 44.86933 | -42.03775 | 34774 ft | 578 kts | 91° |
| 2026-04-12 17:43 | 44.88155 | -41.86880 | 34768 ft | 579 kts | 91° |
| 2026-04-12 17:43 | 44.88961 | -41.75551 | 34766 ft | 578 kts | 91° |
| 2026-04-12 17:44 | 44.90141 | -41.58662 | 34756 ft | 578 kts | 91° |
| 2026-04-12 17:45 | 44.90915 | -41.47396 | 34753 ft | 578 kts | 90° |
| 2026-04-12 17:45 | 44.91676 | -41.36127 | 34757 ft | 579 kts | 90° |
| 2026-04-12 17:46 | 44.92424 | -41.24895 | 34753 ft | 577 kts | 91° |
| 2026-04-12 17:46 | 44.93161 | -41.13674 | 34742 ft | 575 kts | 91° |
| 2026-04-12 17:47 | 44.93883 | -41.02502 | 34744 ft | 575 kts | 91° |
| 2026-04-12 17:47 | 44.94600 | -40.91224 | 34745 ft | 574 kts | 91° |
| 2026-04-12 17:48 | 44.95301 | -40.80029 | 34748 ft | 574 kts | 91° |
| 2026-04-12 17:48 | 44.95988 | -40.68868 | 34723 ft | 575 kts | 91° |
| 2026-04-12 17:49 | 44.96668 | -40.57662 | 34725 ft | 574 kts | 91° |
| 2026-04-12 17:49 | 44.97340 | -40.46399 | 34740 ft | 572 kts | 92° |
| 2026-04-12 17:50 | 44.97995 | -40.35234 | 34740 ft | 570 kts | 92° |
| 2026-04-12 17:50 | 44.98636 | -40.24121 | 34750 ft | 569 kts | 91° |
| 2026-04-12 17:51 | 44.99265 | -40.13040 | 34750 ft | 568 kts | 91° |
| 2026-04-12 17:51 | 44.99882 | -40.01935 | 34738 ft | 568 kts | 91° |
| 2026-04-12 17:52 | 45.00399 | -39.90791 | 34754 ft | 566 kts | 93° |
| 2026-04-12 17:52 | 45.00865 | -39.79740 | 34751 ft | 567 kts | 92° |
| 2026-04-12 17:53 | 45.01323 | -39.68622 | 34747 ft | 568 kts | 92° |
| 2026-04-12 17:53 | 45.01772 | -39.57500 | 34743 ft | 568 kts | 92° |
| 2026-04-12 17:54 | 45.02208 | -39.46389 | 34744 ft | 568 kts | 93° |
| 2026-04-12 17:54 | 45.02634 | -39.35233 | 34736 ft | 568 kts | 92° |
| 2026-04-12 17:55 | 45.03046 | -39.24137 | 34733 ft | 567 kts | 92° |
| 2026-04-12 17:55 | 45.03449 | -39.13011 | 34727 ft | 568 kts | 93° |
| 2026-04-12 17:56 | 45.03843 | -39.01921 | 34732 ft | 568 kts | 92° |
| 2026-04-12 17:56 | 45.04230 | -38.90726 | 34731 ft | 568 kts | 93° |
| 2026-04-12 17:57 | 45.04604 | -38.79617 | 34744 ft | 567 kts | 93° |
| 2026-04-12 17:57 | 45.04967 | -38.68511 | 34734 ft | 566 kts | 92° |
| 2026-04-12 17:58 | 45.05320 | -38.57457 | 34718 ft | 566 kts | 92° |
| 2026-04-12 17:58 | 45.05661 | -38.46359 | 34718 ft | 567 kts | 92° |
| 2026-04-12 17:59 | 45.05992 | -38.35238 | 34716 ft | 567 kts | 92° |
| 2026-04-12 17:59 | 45.06314 | -38.24063 | 34718 ft | 567 kts | 92° |
| 2026-04-12 18:00 | 45.06613 | -38.13329 | 34709 ft | 568 kts | 92° |
| 2026-04-12 18:00 | 45.06911 | -38.02242 | 34728 ft | 566 kts | 92° |
| 2026-04-12 18:01 | 45.07199 | -37.91131 | 34731 ft | 569 kts | 92° |
| 2026-04-12 18:01 | 45.07478 | -37.79901 | 34742 ft | 570 kts | 93° |
| 2026-04-12 18:02 | 45.07745 | -37.68739 | 34722 ft | 570 kts | 92° |
| 2026-04-12 18:02 | 45.08003 | -37.57465 | 34755 ft | 569 kts | 93° |
| 2026-04-12 18:03 | 45.08247 | -37.46345 | 34737 ft | 569 kts | 92° |
| 2026-04-12 18:03 | 45.08482 | -37.35158 | 34910 ft | 568 kts | 93° |
| 2026-04-12 18:03 | 45.08595 | -37.29549 | 35037 ft | 569 kts | 93° |
| 2026-04-12 18:04 | 45.08705 | -37.24023 | 35197 ft | 569 kts | 92° |
| 2026-04-12 18:04 | 45.08814 | -37.18371 | 35356 ft | 569 kts | 92° |
| 2026-04-12 18:04 | 45.08918 | -37.12843 | 35504 ft | 569 kts | 93° |
| 2026-04-12 18:04 | 45.09021 | -37.07216 | 35660 ft | 569 kts | 93° |
| 2026-04-12 18:05 | 45.09121 | -37.01614 | 35808 ft | 569 kts | 92° |
| 2026-04-12 18:05 | 45.09217 | -36.96078 | 35980 ft | 569 kts | 92° |
| 2026-04-12 18:05 | 45.09312 | -36.90429 | 36347 ft | 572 kts | 92° |
| 2026-04-12 18:05 | 45.09403 | -36.84835 | 36460 ft | 570 kts | 91° |
| 2026-04-12 18:06 | 45.09493 | -36.79276 | 36632 ft | 569 kts | 92° |
| 2026-04-12 18:06 | 45.09579 | -36.73650 | 36746 ft | 569 kts | 92° |
| 2026-04-12 18:06 | 45.09662 | -36.68066 | 36738 ft | 571 kts | 92° |
| 2026-04-12 18:07 | 45.09821 | -36.56887 | 36732 ft | 570 kts | 91° |
| 2026-04-12 18:07 | 45.09969 | -36.45692 | 36732 ft | 567 kts | 91° |
| 2026-04-12 18:08 | 45.10105 | -36.34592 | 36753 ft | 564 kts | 92° |
| 2026-04-12 18:08 | 45.10230 | -36.23522 | 36733 ft | 563 kts | 92° |
| 2026-04-12 18:09 | 45.10344 | -36.12385 | 36727 ft | 563 kts | 91° |
| 2026-04-12 18:09 | 45.10446 | -36.01322 | 36738 ft | 563 kts | 91° |
| 2026-04-12 18:10 | 45.10540 | -35.90205 | 36728 ft | 564 kts | 91° |
| 2026-04-12 18:10 | 45.10623 | -35.79123 | 36712 ft | 564 kts | 92° |
| 2026-04-12 18:11 | 45.10695 | -35.68088 | 36711 ft | 563 kts | 92° |
| 2026-04-12 18:11 | 45.10756 | -35.57003 | 36724 ft | 561 kts | 91° |
| 2026-04-12 18:12 | 45.10806 | -35.45991 | 36742 ft | 560 kts | 91° |
| 2026-04-12 18:12 | 45.10846 | -35.34966 | 36746 ft | 560 kts | 92° |
| 2026-04-12 18:13 | 45.10875 | -35.23963 | 36706 ft | 559 kts | 92° |
| 2026-04-12 18:13 | 45.10893 | -35.12994 | 36750 ft | 557 kts | 93° |
| 2026-04-12 18:14 | 45.10900 | -35.02104 | 36963 ft | 555 kts | 92° |
| 2026-04-12 18:14 | 45.10900 | -34.96590 | 37082 ft | 556 kts | 93° |
| 2026-04-12 18:14 | 45.10897 | -34.91154 | 37206 ft | 556 kts | 92° |
| 2026-04-12 18:14 | 45.10891 | -34.85681 | 37330 ft | 556 kts | 92° |
| 2026-04-12 18:15 | 45.10883 | -34.80215 | 37461 ft | 557 kts | 92° |
| 2026-04-12 18:15 | 45.10869 | -34.74692 | 37603 ft | 556 kts | 92° |
| 2026-04-12 18:15 | 45.10853 | -34.69218 | 37726 ft | 556 kts | 92° |
| 2026-04-12 18:15 | 45.10835 | -34.63785 | 37863 ft | 556 kts | 91° |
| 2026-04-12 18:16 | 45.10817 | -34.58282 | 37980 ft | 556 kts | 92° |
| 2026-04-12 18:16 | 45.10796 | -34.52864 | 38128 ft | 555 kts | 92° |
| 2026-04-12 18:16 | 45.10772 | -34.47427 | 38278 ft | 555 kts | 91° |
| 2026-04-12 18:16 | 45.10746 | -34.41973 | 38391 ft | 555 kts | 91° |
| 2026-04-12 18:17 | 45.10719 | -34.36543 | 38527 ft | 554 kts | 91° |
| 2026-04-12 18:17 | 45.10688 | -34.31063 | 38661 ft | 553 kts | 93° |
| 2026-04-12 18:17 | 45.10654 | -34.25637 | 38763 ft | 553 kts | 92° |
| 2026-04-12 18:18 | 45.10578 | -34.14686 | 38763 ft | 555 kts | 92° |
| 2026-04-12 18:18 | 45.10491 | -34.03742 | 38775 ft | 556 kts | 92° |
| 2026-04-12 18:19 | 45.10395 | -33.92806 | 38774 ft | 556 kts | 92° |
| 2026-04-12 18:19 | 45.10287 | -33.81813 | 38764 ft | 555 kts | 92° |
| 2026-04-12 18:20 | 45.10171 | -33.70969 | 38784 ft | 555 kts | 92° |
| 2026-04-12 18:20 | 45.10043 | -33.60045 | 38775 ft | 556 kts | 92° |
| 2026-04-12 18:21 | 45.09904 | -33.49057 | 38775 ft | 556 kts | 93° |
| 2026-04-12 18:21 | 45.09755 | -33.38153 | 38778 ft | 557 kts | 92° |
| 2026-04-12 18:22 | 45.09596 | -33.27221 | 38785 ft | 557 kts | 93° |
| 2026-04-12 18:22 | 45.09425 | -33.16230 | 38772 ft | 557 kts | 93° |
| 2026-04-12 18:23 | 45.09246 | -33.05318 | 38777 ft | 558 kts | 93° |
| 2026-04-12 18:23 | 45.09054 | -32.94305 | 38762 ft | 559 kts | 94° |
| 2026-04-12 18:24 | 45.08852 | -32.83338 | 38779 ft | 559 kts | 93° |
| 2026-04-12 18:24 | 45.08639 | -32.72337 | 38792 ft | 559 kts | 92° |
| 2026-04-12 18:25 | 45.08416 | -32.61357 | 38785 ft | 558 kts | 92° |
| 2026-04-12 18:25 | 45.08183 | -32.50399 | 38787 ft | 558 kts | 92° |
| 2026-04-12 18:26 | 45.07939 | -32.39423 | 38780 ft | 557 kts | 91° |
| 2026-04-12 18:26 | 45.07688 | -32.28566 | 38824 ft | 555 kts | 92° |
| 2026-04-12 18:27 | 45.07423 | -32.17603 | 38827 ft | 555 kts | 92° |
| 2026-04-12 18:27 | 45.07149 | -32.06704 | 38834 ft | 554 kts | 92° |
| 2026-04-12 18:28 | 45.06867 | -31.95862 | 38814 ft | 554 kts | 92° |
| 2026-04-12 18:28 | 45.06573 | -31.84968 | 38825 ft | 553 kts | 91° |
| 2026-04-12 18:29 | 45.06271 | -31.74170 | 38812 ft | 552 kts | 91° |
| 2026-04-12 18:29 | 45.05959 | -31.63348 | 38822 ft | 551 kts | 91° |
| 2026-04-12 18:30 | 45.05636 | -31.52538 | 38824 ft | 549 kts | 91° |
| 2026-04-12 18:30 | 45.05306 | -31.41809 | 38828 ft | 548 kts | 91° |
| 2026-04-12 18:31 | 45.04964 | -31.31048 | 38830 ft | 548 kts | 92° |
| 2026-04-12 18:31 | 45.04614 | -31.20328 | 38835 ft | 547 kts | 92° |
| 2026-04-12 18:32 | 45.04252 | -31.09532 | 38844 ft | 546 kts | 92° |
| 2026-04-12 18:32 | 45.03884 | -30.98869 | 38869 ft | 546 kts | 92° |
| 2026-04-12 18:33 | 45.03503 | -30.88150 | 38862 ft | 546 kts | 92° |
| 2026-04-12 18:33 | 45.03115 | -30.77478 | 38883 ft | 545 kts | 91° |
| 2026-04-12 18:34 | 45.02714 | -30.66740 | 38869 ft | 545 kts | 91° |
| 2026-04-12 18:34 | 45.02305 | -30.56072 | 38882 ft | 544 kts | 92° |
| 2026-04-12 18:35 | 45.01886 | -30.45372 | 38874 ft | 544 kts | 91° |
| 2026-04-12 18:35 | 45.01458 | -30.34730 | 38869 ft | 544 kts | 92° |
| 2026-04-12 18:36 | 45.01095 | -30.25880 | 38891 ft | 543 kts | 92° |
| 2026-04-12 18:37 | 45.00113 | -30.02842 | 38893 ft | 543 kts | 93° |
| 2026-04-12 18:37 | 44.98864 | -29.92366 | 38900 ft | 542 kts | 102° |
| 2026-04-12 18:38 | 44.97274 | -29.81952 | 38915 ft | 543 kts | 102° |
| 2026-04-12 18:38 | 44.95678 | -29.71532 | 38918 ft | 543 kts | 102° |
| 2026-04-12 18:39 | 44.94085 | -29.61194 | 38919 ft | 544 kts | 103° |
| 2026-04-12 18:39 | 44.92470 | -29.50774 | 38930 ft | 544 kts | 103° |
| 2026-04-12 18:40 | 44.90842 | -29.40331 | 38915 ft | 545 kts | 103° |
| 2026-04-12 18:40 | 44.89206 | -29.29902 | 38932 ft | 545 kts | 104° |
| 2026-04-12 18:41 | 44.87569 | -29.19529 | 38928 ft | 544 kts | 103° |
| 2026-04-12 18:41 | 44.85918 | -29.09136 | 38929 ft | 544 kts | 103° |
| 2026-04-12 18:42 | 44.84256 | -28.98733 | 38949 ft | 544 kts | 104° |
| 2026-04-12 18:42 | 44.82592 | -28.88383 | 38950 ft | 544 kts | 103° |
| 2026-04-12 18:43 | 44.79222 | -28.67610 | 38944 ft | 544 kts | 103° |
| 2026-04-12 18:44 | 44.77530 | -28.57279 | 38946 ft | 544 kts | 103° |
| 2026-04-12 18:44 | 44.75818 | -28.46887 | 38939 ft | 544 kts | 103° |
| 2026-04-12 18:45 | 44.74106 | -28.36555 | 38957 ft | 543 kts | 103° |
| 2026-04-12 18:45 | 44.72385 | -28.26234 | 38969 ft | 542 kts | 103° |
| 2026-04-12 18:46 | 44.70667 | -28.15995 | 38970 ft | 541 kts | 103° |
| 2026-04-12 18:46 | 44.68922 | -28.05655 | 38964 ft | 541 kts | 103° |
| 2026-04-12 18:47 | 44.67186 | -27.95423 | 38983 ft | 541 kts | 103° |
| 2026-04-12 18:47 | 44.65431 | -27.85138 | 38975 ft | 542 kts | 103° |
| 2026-04-12 18:48 | 44.63665 | -27.74857 | 38974 ft | 543 kts | 103° |
| 2026-04-12 18:48 | 44.61884 | -27.64547 | 38969 ft | 544 kts | 102° |
| 2026-04-12 18:49 | 44.60093 | -27.54239 | 38994 ft | 544 kts | 103° |
| 2026-04-12 18:49 | 44.58300 | -27.43977 | 38980 ft | 546 kts | 102° |
| 2026-04-12 18:50 | 44.56481 | -27.33628 | 39008 ft | 546 kts | 103° |
| 2026-04-12 18:50 | 44.54651 | -27.23273 | 38997 ft | 547 kts | 103° |
| 2026-04-12 18:51 | 44.52817 | -27.12961 | 38998 ft | 548 kts | 103° |
| 2026-04-12 18:51 | 44.50967 | -27.02611 | 39018 ft | 549 kts | 102° |
| 2026-04-12 18:52 | 44.49107 | -26.92263 | 39013 ft | 550 kts | 102° |
| 2026-04-12 18:52 | 44.47226 | -26.81863 | 39019 ft | 550 kts | 102° |
| 2026-04-12 18:53 | 44.45335 | -26.71464 | 39023 ft | 549 kts | 102° |
| 2026-04-12 18:53 | 44.43446 | -26.61138 | 39011 ft | 550 kts | 102° |
| 2026-04-12 18:54 | 44.41541 | -26.50777 | 39026 ft | 549 kts | 102° |
| 2026-04-12 18:54 | 44.39625 | -26.40419 | 39018 ft | 549 kts | 102° |
| 2026-04-12 18:55 | 44.37710 | -26.30124 | 39019 ft | 548 kts | 103° |
| 2026-04-12 18:55 | 44.35781 | -26.19809 | 39019 ft | 547 kts | 103° |
| 2026-04-12 18:56 | 44.33858 | -26.09579 | 39044 ft | 547 kts | 103° |
| 2026-04-12 18:56 | 44.31925 | -25.99344 | 39035 ft | 547 kts | 102° |
| 2026-04-12 18:57 | 44.29979 | -25.89095 | 39044 ft | 547 kts | 102° |
| 2026-04-12 18:57 | 44.28020 | -25.78836 | 39035 ft | 547 kts | 102° |
| 2026-04-12 18:58 | 44.26062 | -25.68638 | 39050 ft | 547 kts | 102° |
| 2026-04-12 18:58 | 44.24086 | -25.58400 | 39047 ft | 547 kts | 102° |
| 2026-04-12 18:59 | 44.22105 | -25.48194 | 39054 ft | 547 kts | 102° |
| 2026-04-12 18:59 | 44.20123 | -25.38036 | 39051 ft | 547 kts | 102° |
| 2026-04-12 19:00 | 44.18119 | -25.27817 | 39037 ft | 548 kts | 103° |
| 2026-04-12 19:00 | 44.16101 | -25.17580 | 39062 ft | 548 kts | 103° |
| 2026-04-12 19:01 | 44.14070 | -25.07334 | 39060 ft | 549 kts | 103° |
| 2026-04-12 19:01 | 44.12039 | -24.97142 | 39063 ft | 550 kts | 103° |
| 2026-04-12 19:02 | 44.10000 | -24.86959 | 39059 ft | 549 kts | 103° |
| 2026-04-12 19:02 | 44.07937 | -24.76708 | 39068 ft | 550 kts | 103° |
| 2026-04-12 19:03 | 44.05874 | -24.66516 | 39083 ft | 550 kts | 103° |
| 2026-04-12 19:03 | 44.03804 | -24.56332 | 39086 ft | 549 kts | 103° |
| 2026-04-12 19:04 | 44.01724 | -24.46157 | 39077 ft | 549 kts | 102° |
| 2026-04-12 19:04 | 43.99636 | -24.35994 | 39076 ft | 549 kts | 103° |
| 2026-04-12 19:05 | 43.97539 | -24.25839 | 39099 ft | 548 kts | 103° |
| 2026-04-12 19:05 | 43.95428 | -24.15661 | 39081 ft | 549 kts | 103° |
| 2026-04-12 19:06 | 43.93314 | -24.05521 | 39101 ft | 549 kts | 103° |
| 2026-04-12 19:06 | 43.91189 | -23.95380 | 39104 ft | 549 kts | 103° |
| 2026-04-12 19:07 | 43.89064 | -23.85292 | 39104 ft | 549 kts | 103° |
| 2026-04-12 19:07 | 43.86921 | -23.75164 | 39099 ft | 549 kts | 103° |
| 2026-04-12 19:08 | 43.84764 | -23.65021 | 39099 ft | 549 kts | 103° |
| 2026-04-12 19:08 | 43.82594 | -23.54867 | 39098 ft | 549 kts | 103° |
| 2026-04-12 19:09 | 43.80428 | -23.44774 | 39092 ft | 549 kts | 103° |
| 2026-04-12 19:09 | 43.78256 | -23.34708 | 39112 ft | 548 kts | 103° |
| 2026-04-12 19:10 | 43.76068 | -23.24618 | 39101 ft | 547 kts | 103° |
| 2026-04-12 19:10 | 43.73874 | -23.14548 | 39104 ft | 547 kts | 103° |
| 2026-04-12 19:11 | 43.71683 | -23.04538 | 39106 ft | 548 kts | 104° |
| 2026-04-12 19:11 | 43.69467 | -22.94462 | 39103 ft | 547 kts | 103° |
| 2026-04-12 19:12 | 43.67257 | -22.84459 | 39119 ft | 546 kts | 103° |
| 2026-04-12 19:12 | 43.65039 | -22.74471 | 39112 ft | 546 kts | 103° |
| 2026-04-12 19:13 | 43.62803 | -22.64442 | 39126 ft | 546 kts | 103° |
| 2026-04-12 19:13 | 43.60575 | -22.54498 | 39134 ft | 546 kts | 103° |
| 2026-04-12 19:14 | 43.58328 | -22.44517 | 39135 ft | 546 kts | 103° |
| 2026-04-12 19:14 | 43.56069 | -22.34527 | 39135 ft | 546 kts | 104° |
| 2026-04-12 19:15 | 43.53809 | -22.24580 | 39139 ft | 546 kts | 103° |
| 2026-04-12 19:15 | 43.51548 | -22.14670 | 39141 ft | 546 kts | 104° |
| 2026-04-12 19:16 | 43.49253 | -22.04662 | 39142 ft | 546 kts | 103° |
| 2026-04-12 19:16 | 43.46977 | -21.94778 | 39151 ft | 546 kts | 103° |
| 2026-04-12 19:17 | 43.44673 | -21.84819 | 39150 ft | 545 kts | 103° |
| 2026-04-12 19:17 | 43.42379 | -21.74947 | 39150 ft | 545 kts | 103° |
| 2026-04-12 19:18 | 43.40070 | -21.65056 | 39160 ft | 544 kts | 103° |
| 2026-04-12 19:18 | 43.37751 | -21.55166 | 39151 ft | 544 kts | 103° |
| 2026-04-12 19:19 | 43.35436 | -21.45336 | 39153 ft | 544 kts | 103° |
| 2026-04-12 19:19 | 43.33100 | -21.35462 | 39159 ft | 544 kts | 103° |
| 2026-04-12 19:20 | 43.30765 | -21.25634 | 39163 ft | 543 kts | 103° |
| 2026-04-12 19:20 | 43.28410 | -21.15766 | 39162 ft | 543 kts | 103° |
| 2026-04-12 19:21 | 43.26057 | -21.05949 | 39161 ft | 543 kts | 103° |
| 2026-04-12 19:21 | 43.23700 | -20.96154 | 39168 ft | 544 kts | 103° |
| 2026-04-12 19:22 | 43.21328 | -20.86344 | 39166 ft | 544 kts | 103° |
| 2026-04-12 19:22 | 43.18954 | -20.76569 | 39173 ft | 544 kts | 103° |
| 2026-04-12 19:23 | 43.16555 | -20.66735 | 39177 ft | 543 kts | 103° |
| 2026-04-12 19:23 | 43.14172 | -20.57000 | 39174 ft | 543 kts | 103° |
| 2026-04-12 19:24 | 43.11766 | -20.47220 | 39177 ft | 544 kts | 103° |
| 2026-04-12 19:24 | 43.09353 | -20.37451 | 39182 ft | 543 kts | 102° |
| 2026-04-12 19:25 | 43.06938 | -20.27715 | 39185 ft | 542 kts | 103° |
| 2026-04-12 19:25 | 43.04517 | -20.17994 | 39192 ft | 542 kts | 103° |
| 2026-04-12 19:26 | 43.02072 | -20.08220 | 39192 ft | 542 kts | 103° |
| 2026-04-12 19:26 | 42.99487 | -19.98562 | 39195 ft | 547 kts | 110° |
| 2026-04-12 19:27 | 42.96102 | -19.89288 | 39196 ft | 548 kts | 112° |
| 2026-04-12 19:27 | 42.92690 | -19.80040 | 39201 ft | 548 kts | 112° |
| 2026-04-12 19:28 | 42.89267 | -19.70790 | 39202 ft | 548 kts | 112° |
| 2026-04-12 19:28 | 42.85830 | -19.61528 | 39202 ft | 548 kts | 111° |
| 2026-04-12 19:29 | 42.82399 | -19.52309 | 39200 ft | 548 kts | 111° |
| 2026-04-12 19:29 | 42.78946 | -19.43064 | 39206 ft | 547 kts | 111° |
| 2026-04-12 19:30 | 42.75505 | -19.33877 | 39205 ft | 547 kts | 112° |
| 2026-04-12 19:30 | 42.72058 | -19.24703 | 39217 ft | 547 kts | 111° |
| 2026-04-12 19:31 | 42.68599 | -19.15524 | 39217 ft | 548 kts | 111° |
| 2026-04-12 19:31 | 42.65122 | -19.06329 | 39219 ft | 547 kts | 112° |
| 2026-04-12 19:32 | 42.61663 | -18.97212 | 39213 ft | 546 kts | 111° |
| 2026-04-12 19:32 | 42.58195 | -18.88100 | 39222 ft | 546 kts | 111° |
| 2026-04-12 19:33 | 42.54707 | -18.78961 | 39235 ft | 546 kts | 112° |
| 2026-04-12 19:33 | 42.51205 | -18.69817 | 39239 ft | 546 kts | 111° |
| 2026-04-12 19:34 | 42.47702 | -18.60700 | 39236 ft | 546 kts | 111° |
| 2026-04-12 19:34 | 42.44222 | -18.51673 | 39242 ft | 545 kts | 111° |
| 2026-04-12 19:35 | 42.40708 | -18.42584 | 39238 ft | 544 kts | 111° |
| 2026-04-12 19:35 | 42.37201 | -18.33540 | 39244 ft | 544 kts | 112° |
| 2026-04-12 19:36 | 42.33681 | -18.24493 | 39248 ft | 544 kts | 112° |
| 2026-04-12 19:36 | 42.30173 | -18.15506 | 39241 ft | 544 kts | 111° |
| 2026-04-12 19:37 | 42.26638 | -18.06475 | 39243 ft | 543 kts | 112° |
| 2026-04-12 19:37 | 42.23116 | -17.97508 | 39248 ft | 543 kts | 111° |
| 2026-04-12 19:38 | 42.19598 | -17.88577 | 39253 ft | 543 kts | 112° |
| 2026-04-12 19:38 | 42.16039 | -17.79573 | 39247 ft | 542 kts | 112° |
| 2026-04-12 19:39 | 42.12509 | -17.70668 | 39256 ft | 540 kts | 111° |
| 2026-04-12 19:39 | 42.09570 | -17.63275 | 39250 ft | 540 kts | 111° |
| 2026-04-12 19:40 | 42.05448 | -17.52936 | 39255 ft | 538 kts | 111° |
| 2026-04-12 19:40 | 42.01895 | -17.44056 | 39260 ft | 537 kts | 111° |
| 2026-04-12 19:41 | 41.98372 | -17.35274 | 39256 ft | 537 kts | 111° |
| 2026-04-12 19:41 | 41.94807 | -17.26416 | 39261 ft | 537 kts | 112° |
| 2026-04-12 19:42 | 41.91261 | -17.17631 | 39265 ft | 537 kts | 112° |
| 2026-04-12 19:42 | 41.87715 | -17.08872 | 39260 ft | 536 kts | 112° |
| 2026-04-12 19:43 | 41.82391 | -16.95772 | 39285 ft | 535 kts | 111° |
| 2026-04-12 19:43 | 41.78818 | -16.87013 | 39281 ft | 534 kts | 111° |
| 2026-04-12 19:44 | 41.75254 | -16.78301 | 39277 ft | 533 kts | 111° |
| 2026-04-12 19:44 | 41.71693 | -16.69624 | 39276 ft | 532 kts | 111° |
| 2026-04-12 19:45 | 41.68130 | -16.60965 | 39276 ft | 532 kts | 111° |
| 2026-04-12 19:45 | 41.64565 | -16.52327 | 39284 ft | 531 kts | 111° |
| 2026-04-12 19:46 | 41.60986 | -16.43681 | 39287 ft | 531 kts | 111° |
| 2026-04-12 19:46 | 41.57426 | -16.35107 | 39285 ft | 531 kts | 111° |
| 2026-04-12 19:47 | 41.53844 | -16.26501 | 39280 ft | 531 kts | 112° |
| 2026-04-12 19:47 | 41.50248 | -16.17889 | 39278 ft | 531 kts | 111° |
| 2026-04-12 19:48 | 41.46659 | -16.09320 | 39287 ft | 531 kts | 111° |
| 2026-04-12 19:48 | 41.43059 | -16.00750 | 39277 ft | 530 kts | 111° |
| 2026-04-12 19:49 | 41.39462 | -15.92228 | 39281 ft | 528 kts | 112° |
| 2026-04-12 19:49 | 41.35863 | -15.83720 | 39293 ft | 527 kts | 112° |
| 2026-04-12 19:50 | 41.32260 | -15.75212 | 39285 ft | 529 kts | 112° |
| 2026-04-12 19:50 | 41.28643 | -15.66695 | 39284 ft | 530 kts | 112° |
| 2026-04-12 19:51 | 41.25012 | -15.58172 | 39283 ft | 530 kts | 111° |
| 2026-04-12 19:51 | 41.21371 | -15.49650 | 39300 ft | 529 kts | 112° |
| 2026-04-12 19:52 | 41.17750 | -15.41199 | 39295 ft | 529 kts | 112° |
| 2026-04-12 19:52 | 41.14103 | -15.32707 | 39287 ft | 529 kts | 113° |
| 2026-04-12 19:53 | 41.10457 | -15.24245 | 39292 ft | 529 kts | 112° |
| 2026-04-12 19:53 | 41.06791 | -15.15758 | 39294 ft | 529 kts | 112° |
| 2026-04-12 19:54 | 41.03138 | -15.07328 | 39298 ft | 529 kts | 112° |
| 2026-04-12 19:54 | 40.99509 | -14.98844 | 39298 ft | 524 kts | 109° |
| 2026-04-12 19:55 | 40.96363 | -14.90211 | 39298 ft | 522 kts | 108° |
| 2026-04-12 19:55 | 40.93220 | -14.81560 | 39298 ft | 521 kts | 108° |
| 2026-04-12 19:56 | 40.90089 | -14.72974 | 39289 ft | 521 kts | 108° |
| 2026-04-12 19:56 | 40.86948 | -14.64400 | 39289 ft | 519 kts | 108° |
| 2026-04-12 19:57 | 40.83792 | -14.55800 | 39283 ft | 520 kts | 108° |
| 2026-04-12 19:57 | 40.80650 | -14.47256 | 39281 ft | 520 kts | 107° |
| 2026-04-12 19:58 | 40.77488 | -14.38692 | 39285 ft | 520 kts | 108° |
| 2026-04-12 19:58 | 40.74308 | -14.30107 | 39287 ft | 519 kts | 109° |
| 2026-04-12 19:59 | 40.71127 | -14.21548 | 39294 ft | 519 kts | 108° |
| 2026-04-12 19:59 | 40.67951 | -14.13030 | 39288 ft | 518 kts | 109° |
| 2026-04-12 20:00 | 40.64777 | -14.04541 | 39284 ft | 518 kts | 109° |
| 2026-04-12 20:00 | 40.61608 | -13.96096 | 39281 ft | 518 kts | 108° |
| 2026-04-12 20:01 | 40.58403 | -13.87595 | 39283 ft | 517 kts | 108° |
| 2026-04-12 20:01 | 40.55223 | -13.79189 | 39284 ft | 517 kts | 109° |
| 2026-04-12 20:02 | 40.51529 | -13.70939 | 39284 ft | 526 kts | 116° |
| 2026-04-12 20:02 | 40.47517 | -13.62933 | 39277 ft | 526 kts | 116° |
| 2026-04-12 20:03 | 40.43494 | -13.54914 | 39284 ft | 526 kts | 116° |
| 2026-04-12 20:03 | 40.39471 | -13.46911 | 39292 ft | 527 kts | 115° |
| 2026-04-12 20:04 | 40.35416 | -13.38865 | 39286 ft | 526 kts | 116° |
| 2026-04-12 20:04 | 40.31392 | -13.30897 | 39283 ft | 526 kts | 116° |
| 2026-04-12 20:05 | 40.27340 | -13.22889 | 39285 ft | 526 kts | 116° |
| 2026-04-12 20:05 | 40.23317 | -13.14960 | 39279 ft | 528 kts | 116° |
| 2026-04-12 20:06 | 40.19251 | -13.06964 | 39278 ft | 529 kts | 116° |
| 2026-04-12 20:06 | 40.15173 | -12.98967 | 39284 ft | 529 kts | 116° |
| 2026-04-12 20:07 | 40.11098 | -12.90995 | 39291 ft | 528 kts | 116° |
| 2026-04-12 20:07 | 40.06991 | -12.82978 | 39295 ft | 528 kts | 116° |
| 2026-04-12 20:08 | 40.02908 | -12.75028 | 39292 ft | 528 kts | 116° |
| 2026-04-12 20:08 | 39.98842 | -12.67133 | 39297 ft | 528 kts | 115° |
| 2026-04-12 20:09 | 39.94729 | -12.59165 | 39290 ft | 527 kts | 115° |
| 2026-04-12 20:09 | 39.90648 | -12.51280 | 39289 ft | 526 kts | 116° |
| 2026-04-12 20:10 | 39.86557 | -12.43396 | 39288 ft | 525 kts | 116° |
| 2026-04-12 20:10 | 39.82459 | -12.35515 | 39281 ft | 527 kts | 115° |
| 2026-04-12 20:11 | 39.78353 | -12.27638 | 39275 ft | 527 kts | 117° |
| 2026-04-12 20:11 | 39.74239 | -12.19766 | 39267 ft | 528 kts | 116° |
| 2026-04-12 20:12 | 39.70107 | -12.11879 | 39274 ft | 529 kts | 116° |
| 2026-04-12 20:12 | 39.66183 | -12.04403 | 39272 ft | 529 kts | 116° |
| 2026-04-12 20:13 | 39.62046 | -11.96546 | 38896 ft | 532 kts | 117° |
| 2026-04-12 20:13 | 39.57876 | -11.88646 | 38428 ft | 531 kts | 117° |
| 2026-04-12 20:14 | 39.55796 | -11.84716 | 38186 ft | 530 kts | 117° |
| 2026-04-12 20:14 | 39.53709 | -11.80773 | 37931 ft | 530 kts | 117° |
| 2026-04-12 20:14 | 39.51619 | -11.76829 | 37446 ft | 534 kts | 117° |
| 2026-04-12 20:14 | 39.49517 | -11.72869 | 36781 ft | 533 kts | 116° |
| 2026-04-12 20:15 | 39.47431 | -11.68945 | 36228 ft | 533 kts | 116° |
| 2026-04-12 20:15 | 39.45340 | -11.65015 | 35733 ft | 533 kts | 116° |
| 2026-04-12 20:15 | 39.43220 | -11.61036 | 35165 ft | 534 kts | 116° |
| 2026-04-12 20:15 | 39.41135 | -11.57127 | 34593 ft | 532 kts | 116° |
| 2026-04-12 20:16 | 39.39026 | -11.53183 | 33974 ft | 527 kts | 116° |
| 2026-04-12 20:16 | 39.36975 | -11.49356 | 33440 ft | 520 kts | 116° |
| 2026-04-12 20:16 | 39.34919 | -11.45519 | 32847 ft | 515 kts | 116° |
| 2026-04-12 20:16 | 39.32898 | -11.41752 | 32299 ft | 509 kts | 116° |
| 2026-04-12 20:17 | 39.30899 | -11.38029 | 31734 ft | 506 kts | 116° |
| 2026-04-12 20:17 | 39.28909 | -11.34326 | 31176 ft | 502 kts | 118° |
| 2026-04-12 20:17 | 39.26923 | -11.30632 | 30626 ft | 498 kts | 118° |
| 2026-04-12 20:17 | 39.24939 | -11.26949 | 30068 ft | 496 kts | 118° |
| 2026-04-12 20:18 | 39.22999 | -11.23349 | 29534 ft | 492 kts | 118° |
| 2026-04-12 20:18 | 39.21041 | -11.19722 | 28984 ft | 487 kts | 118° |
| 2026-04-12 20:18 | 39.19125 | -11.16176 | 28442 ft | 482 kts | 118° |
| 2026-04-12 20:18 | 39.17211 | -11.12639 | 27913 ft | 479 kts | 118° |
| 2026-04-12 20:19 | 39.15332 | -11.09168 | 27385 ft | 475 kts | 119° |
| 2026-04-12 20:19 | 39.13446 | -11.05688 | 26868 ft | 471 kts | 119° |
| 2026-04-12 20:19 | 39.11563 | -11.02218 | 26339 ft | 468 kts | 119° |
| 2026-04-12 20:19 | 39.09707 | -10.98802 | 25829 ft | 463 kts | 119° |
| 2026-04-12 20:20 | 39.07873 | -10.95428 | 25313 ft | 459 kts | 119° |
| 2026-04-12 20:20 | 39.06064 | -10.92105 | 24814 ft | 455 kts | 119° |
| 2026-04-12 20:20 | 39.04254 | -10.88783 | 24315 ft | 452 kts | 120° |
| 2026-04-12 20:20 | 39.02455 | -10.85483 | 23821 ft | 449 kts | 120° |
| 2026-04-12 20:21 | 39.00670 | -10.82214 | 23325 ft | 445 kts | 120° |
| 2026-04-12 20:21 | 38.98895 | -10.78966 | 22842 ft | 441 kts | 120° |
| 2026-04-12 20:21 | 38.97147 | -10.75771 | 22358 ft | 439 kts | 121° |
| 2026-04-12 20:21 | 38.95388 | -10.72558 | 21869 ft | 437 kts | 121° |
| 2026-04-12 20:22 | 38.93706 | -10.69334 | 21384 ft | 429 kts | 114° |
| 2026-04-12 20:22 | 38.92608 | -10.65836 | 20894 ft | 414 kts | 97° |
| 2026-04-12 20:22 | 38.92231 | -10.62268 | 20422 ft | 402 kts | 85° |
| 2026-04-12 20:22 | 38.92117 | -10.58679 | 19950 ft | 399 kts | 85° |
| 2026-04-12 20:23 | 38.92000 | -10.55142 | 19539 ft | 399 kts | 85° |
| 2026-04-12 20:23 | 38.91881 | -10.51616 | 19089 ft | 397 kts | 85° |
| 2026-04-12 20:23 | 38.91760 | -10.48069 | 18653 ft | 396 kts | 85° |
| 2026-04-12 20:23 | 38.91639 | -10.44548 | 18214 ft | 394 kts | 86° |
| 2026-04-12 20:24 | 38.91519 | -10.41075 | 17787 ft | 392 kts | 86° |
| 2026-04-12 20:24 | 38.91396 | -10.37589 | 17345 ft | 389 kts | 86° |
| 2026-04-12 20:24 | 38.91273 | -10.34104 | 16910 ft | 386 kts | 86° |
| 2026-04-12 20:24 | 38.91151 | -10.30705 | 16485 ft | 383 kts | 86° |
| 2026-04-12 20:25 | 38.91029 | -10.27302 | 16068 ft | 380 kts | 86° |
| 2026-04-12 20:25 | 38.90906 | -10.23930 | 15653 ft | 376 kts | 86° |
| 2026-04-12 20:25 | 38.90783 | -10.20608 | 15242 ft | 369 kts | 86° |
| 2026-04-12 20:25 | 38.90662 | -10.17350 | 14833 ft | 362 kts | 86° |
| 2026-04-12 20:26 | 38.90542 | -10.14157 | 14439 ft | 355 kts | 86° |
| 2026-04-12 20:26 | 38.90424 | -10.11027 | 14051 ft | 348 kts | 85° |
| 2026-04-12 20:26 | 38.90306 | -10.07932 | 13665 ft | 342 kts | 85° |
| 2026-04-12 20:26 | 38.90189 | -10.04913 | 13286 ft | 337 kts | 86° |
| 2026-04-12 20:27 | 38.89773 | -10.01962 | 12896 ft | 343 kts | 102° |
| 2026-04-12 20:27 | 38.88694 | -9.99196 | 12496 ft | 347 kts | 122° |
| 2026-04-12 20:27 | 38.87056 | -9.96972 | 12086 ft | 348 kts | 138° |
| 2026-04-12 20:27 | 38.85154 | -9.95024 | 11666 ft | 345 kts | 140° |
| 2026-04-12 20:28 | 38.83303 | -9.93136 | 11311 ft | 340 kts | 140° |
| 2026-04-12 20:28 | 38.81437 | -9.91232 | 10928 ft | 336 kts | 140° |
| 2026-04-12 20:28 | 38.79619 | -9.89378 | 10561 ft | 332 kts | 139° |
| 2026-04-12 20:28 | 38.77819 | -9.87543 | 10193 ft | 329 kts | 139° |
| 2026-04-12 20:29 | 38.76047 | -9.85738 | 9831 ft | 325 kts | 140° |
| 2026-04-12 20:29 | 38.74209 | -9.84091 | 9477 ft | 323 kts | 153° |
| 2026-04-12 20:29 | 38.72091 | -9.83257 | 9121 ft | 316 kts | 175° |
| 2026-04-12 20:29 | 38.69900 | -9.82972 | 8759 ft | 312 kts | 177° |
| 2026-04-12 20:30 | 38.67757 | -9.82706 | 8392 ft | 307 kts | 176° |
| 2026-04-12 20:30 | 38.65672 | -9.82444 | 8066 ft | 296 kts | 176° |
| 2026-04-12 20:30 | 38.63654 | -9.82190 | 7760 ft | 286 kts | 176° |
| 2026-04-12 20:30 | 38.61700 | -9.81945 | 7452 ft | 277 kts | 176° |
| 2026-04-12 20:31 | 38.59814 | -9.81709 | 7150 ft | 270 kts | 176° |
| 2026-04-12 20:31 | 38.57959 | -9.81447 | 6850 ft | 263 kts | 169° |
| 2026-04-12 20:31 | 38.56278 | -9.80605 | 6460 ft | 258 kts | 142° |
| 2026-04-12 20:31 | 38.55069 | -9.79043 | 6193 ft | 239 kts | 115° |
| 2026-04-12 20:32 | 38.54474 | -9.77207 | 5951 ft | 212 kts | 92° |
| 2026-04-12 20:32 | 38.54361 | -9.75438 | 5776 ft | 193 kts | 77° |
| 2026-04-12 20:32 | 38.54462 | -9.73718 | 5686 ft | 196 kts | 75° |
| 2026-04-12 20:32 | 38.54569 | -9.71994 | 5560 ft | 194 kts | 75° |
| 2026-04-12 20:33 | 38.54674 | -9.70270 | 5459 ft | 196 kts | 75° |
| 2026-04-12 20:33 | 38.54778 | -9.68548 | 5298 ft | 192 kts | 75° |
| 2026-04-12 20:33 | 38.54880 | -9.66837 | 5185 ft | 193 kts | 75° |
| 2026-04-12 20:33 | 38.54984 | -9.65129 | 5044 ft | 193 kts | 75° |
| 2026-04-12 20:34 | 38.55086 | -9.63425 | 4867 ft | 192 kts | 75° |
| 2026-04-12 20:34 | 38.55192 | -9.61744 | 4699 ft | 191 kts | 75° |
| 2026-04-12 20:34 | 38.55289 | -9.60052 | 4520 ft | 191 kts | 75° |
| 2026-04-12 20:34 | 38.55389 | -9.58354 | 4368 ft | 189 kts | 75° |
| 2026-04-12 20:35 | 38.55489 | -9.56672 | 4213 ft | 190 kts | 75° |
| 2026-04-12 20:35 | 38.55585 | -9.54991 | 4076 ft | 190 kts | 76° |
| 2026-04-12 20:35 | 38.55685 | -9.53314 | 3961 ft | 189 kts | 75° |
| 2026-04-12 20:35 | 38.55759 | -9.51632 | 3862 ft | 192 kts | 80° |
| 2026-04-12 20:36 | 38.55680 | -9.49931 | 3742 ft | 194 kts | 84° |
| 2026-04-12 20:36 | 38.55589 | -9.48208 | 3595 ft | 193 kts | 83° |
| 2026-04-12 20:36 | 38.55510 | -9.46495 | 3484 ft | 191 kts | 83° |
| 2026-04-12 20:36 | 38.55424 | -9.44797 | 3377 ft | 191 kts | 83° |
| 2026-04-12 20:37 | 38.55340 | -9.43108 | 3240 ft | 190 kts | 83° |
| 2026-04-12 20:37 | 38.55256 | -9.41427 | 3096 ft | 190 kts | 83° |
| 2026-04-12 20:37 | 38.55278 | -9.39764 | 2965 ft | 181 kts | 68° |
| 2026-04-12 20:37 | 38.55609 | -9.38229 | 2810 ft | 179 kts | 63° |
| 2026-04-12 20:38 | 38.55958 | -9.36701 | 2655 ft | 178 kts | 64° |
| 2026-04-12 20:38 | 38.56295 | -9.35197 | 2529 ft | 179 kts | 64° |
| 2026-04-12 20:38 | 38.56640 | -9.33643 | 2381 ft | 181 kts | 65° |
| 2026-04-12 20:38 | 38.56994 | -9.32090 | 2223 ft | 181 kts | 63° |
| 2026-04-12 20:39 | 38.57663 | -9.30830 | 2023 ft | 167 kts | 27° |
| 2026-04-12 20:39 | 38.58717 | -9.30512 | 2005 ft | 153 kts | 353° |
| 2026-04-12 20:39 | 38.59746 | -9.30789 | 1990 ft | 147 kts | 345° |
| 2026-04-12 20:39 | 38.60733 | -9.31171 | 1998 ft | 148 kts | 343° |
| 2026-04-12 20:40 | 38.61719 | -9.31560 | 2003 ft | 147 kts | 344° |
| 2026-04-12 20:40 | 38.62710 | -9.31928 | 2017 ft | 146 kts | 345° |
| 2026-04-12 20:40 | 38.63687 | -9.32289 | 1976 ft | 143 kts | 345° |
| 2026-04-12 20:40 | 38.64616 | -9.32626 | 1810 ft | 136 kts | 345° |
| 2026-04-12 20:41 | 38.65521 | -9.32954 | 1616 ft | 132 kts | 344° |
| 2026-04-12 20:41 | 38.66369 | -9.33264 | 1448 ft | 119 kts | 344° |
| 2026-04-12 20:41 | 38.67152 | -9.33554 | 1281 ft | 115 kts | 344° |
| 2026-04-12 20:41 | 38.67943 | -9.33844 | 1126 ft | 121 kts | 345° |
| 2026-04-12 20:42 | 38.68753 | -9.34137 | 972 ft | 120 kts | 344° |
| 2026-04-12 20:42 | 38.69553 | -9.34433 | 800 ft | 118 kts | 343° |
| 2026-04-12 20:42 | 38.70327 | -9.34721 | 646 ft | 114 kts | 344° |
| 2026-04-12 20:42 | 38.71112 | -9.35005 | 495 ft | 115 kts | 344° |
| 2026-04-12 20:43 | 38.71880 | -9.35290 | 326 ft | 114 kts | 345° |
| 2026-04-12 20:43 | 38.72543 | -9.35532 | 325 ft | 77 kts | 344° |
| 2026-04-12 20:43 | 38.72901 | -9.35663 | 338 ft | 24 kts | 343° |
| 2026-04-12 20:43 | 38.72954 | -9.35704 | 339 ft | 3 kts | 299° |
| 2026-04-12 20:44 | 38.72957 | -9.35687 | 339 ft | 7 kts | 146° |
| 2026-04-12 20:44 | 38.72850 | -9.35644 | 337 ft | 20 kts | 164° |
| 2026-04-12 20:44 | 38.72681 | -9.35582 | 330 ft | 29 kts | 164° |
| 2026-04-12 20:44 | 38.72553 | -9.35540 | 325 ft | 7 kts | 201° |
| 2026-04-12 20:45 | 38.72528 | -9.35617 | 324 ft | 9 kts | 256° |
| 2026-04-12 20:45 | 38.72532 | -9.35661 | 324 ft | 5 kts | 288° |
| 2026-04-12 20:45 | 38.72527 | -9.35712 | 324 ft | 2 kts | 255° |
| 2026-04-12 20:45 | 38.72516 | -9.35738 | 324 ft | 3 kts | 245° |
| 2026-04-12 20:46 | 38.72512 | -9.35756 | 324 ft | 0 kts | 256° |